Time;durP1;ratioP1;P1;durP2;ratioP2;P2;SDS_P1;SDS_P2;PMS_P1;PMS_P2;Temp;Humidity;BMP_temperature;BMP_pressure;BME280_temperature;BME280_humidity;BME280_pressure;Samples;Min_cycle;Max_cycle;Signal;HPM_P1;HPM_P2
2021/11/12 00:03:38;;;;;;;62.85;36.72;;;8.30;99.90;;;8.52;80.18;101802.44;4974202;28;20218;-71
2021/11/12 00:14:26;;;;;;;63.85;36.45;;;8.30;99.90;;;8.42;80.63;101789.13;4973590;28;20238;-71
2021/11/12 00:16:55;;;;;;;65.45;38.33;;;8.30;99.90;;;8.32;80.85;101785.72;4974034;28;20191;-71
2021/11/12 00:19:24;;;;;;;67.88;39.85;;;8.30;99.90;;;8.26;80.66;101789.91;4972583;28;20207;-71
2021/11/12 00:21:53;;;;;;;58.40;38.22;;;8.20;99.90;;;8.35;81.11;101787.22;4972453;28;20191;-72
2021/11/12 00:24:23;;;;;;;72.03;38.92;;;8.30;99.90;;;8.26;81.19;101789.03;4973742;28;20211;-72
2021/11/12 00:26:51;;;;;;;59.47;39.85;;;8.20;99.90;;;8.25;80.80;101785.50;4973836;28;20265;-71
2021/11/12 00:29:20;;;;;;;61.88;37.75;;;8.20;99.90;;;8.29;81.17;101773.41;4988369;28;20191;-71
2021/11/12 00:31:59;;;;;;;62.80;37.78;;;8.20;99.90;;;8.27;81.29;101779.97;4973385;28;20191;-72
2021/11/12 00:37:13;;;;;;;66.93;39.83;;;8.10;99.90;;;8.13;81.13;101773.31;4973295;28;20633;-71
2021/11/12 00:39:46;;;;;;;65.18;40.10;;;8.10;99.90;;;8.32;81.00;101782.19;4973114;28;20198;-72
2021/11/12 00:42:17;;;;;;;78.38;42.83;;;8.10;99.90;;;8.15;81.42;101775.88;4975611;28;20277;-71
2021/11/12 00:44:48;;;;;;;66.13;37.85;;;8.10;99.90;;;8.31;81.38;101780.50;4975603;28;20179;-71
2021/11/12 00:47:25;;;;;;;67.93;40.85;;;8.10;99.90;;;8.35;80.79;101781.84;4974254;28;20195;-71
2021/11/12 00:50:23;;;;;;;76.72;41.60;;;8.20;99.90;;;8.26;81.42;101779.09;4974109;28;20195;-72
2021/11/12 00:55:39;;;;;;;67.13;38.67;;;8.10;99.90;;;8.34;81.46;101785.53;4987560;28;20199;-72
2021/11/12 00:58:09;;;;;;;72.80;38.40;;;8.20;99.90;;;8.43;80.82;101789.94;4973573;28;20695;-72
2021/11/12 01:00:39;;;;;;;71.25;39.00;;;8.30;99.90;;;8.32;81.30;101788.44;4974217;28;20184;-71
2021/11/12 01:03:08;;;;;;;75.20;44.22;;;8.20;99.90;;;8.40;80.73;101791.13;4974316;28;20211;-72
2021/11/12 01:05:36;;;;;;;66.18;38.22;;;8.30;99.90;;;8.32;81.52;101788.44;4975937;28;20621;-72
2021/11/12 01:08:08;;;;;;;65.75;39.47;;;8.20;99.90;;;8.38;81.22;101789.59;4975013;28;20187;-72
2021/11/12 01:10:38;;;;;;;63.28;37.88;;;8.20;99.90;;;8.31;81.52;101788.59;4976189;28;20287;-71
2021/11/12 01:13:06;;;;;;;68.00;37.45;;;8.20;99.90;;;8.50;80.42;101785.56;4984423;28;20323;-72
2021/11/12 01:15:35;;;;;;;61.25;35.67;;;8.30;99.90;;;8.40;80.57;101785.72;4989325;28;20227;-72
2021/11/12 01:18:03;;;;;;;62.13;37.08;;;8.30;99.90;;;8.35;80.86;101790.78;4991684;28;20191;-72
2021/11/12 01:20:32;;;;;;;65.38;36.85;;;8.30;99.90;;;8.26;81.28;101789.91;4991231;28;20282;-71
2021/11/12 01:23:00;;;;;;;66.55;37.40;;;8.20;99.90;;;8.38;81.34;101781.50;4984755;28;20217;-72
2021/11/12 01:25:29;;;;;;;69.95;38.13;;;8.30;99.90;;;8.41;80.56;101790.13;4995353;28;20207;-73
2021/11/12 01:27:59;;;;;;;60.92;37.85;;;8.30;99.90;;;8.36;80.83;101784.38;4993900;28;20259;-73
2021/11/12 01:30:27;;;;;;;69.28;37.50;;;8.30;99.90;;;8.44;80.73;101786.22;4978259;28;20282;-71
2021/11/12 01:32:56;;;;;;;69.53;38.10;;;8.30;99.90;;;8.41;80.77;101787.44;4972681;28;20681;-73
2021/11/12 01:35:25;;;;;;;67.00;36.97;;;8.30;99.90;;;8.44;80.64;101786.22;4973368;28;20255;-72
2021/11/12 01:37:54;;;;;;;64.35;36.83;;;8.30;99.90;;;8.35;81.06;101788.09;4973783;28;20196;-72
2021/11/12 01:40:24;;;;;;;67.47;38.47;;;8.30;99.90;;;8.40;81.24;101790.28;4973374;28;20574;-72
2021/11/12 01:43:08;;;;;;;65.20;37.65;;;8.30;99.90;;;8.50;80.63;101785.56;4973719;28;20211;-71
2021/11/12 01:45:48;;;;;;;63.92;37.53;;;8.40;99.90;;;8.21;81.42;101783.31;4979681;28;20270;-73
2021/11/12 01:51:06;;;;;;;70.78;38.60;;;8.20;99.90;;;8.46;81.47;101768.03;4979593;28;20257;-73
2021/11/12 01:53:38;;;;;;;65.20;35.85;;;8.30;99.90;;;8.46;81.22;101759.94;5001188;28;20504;-74
2021/11/12 01:59:11;;;;;;;60.85;35.83;;;8.20;99.90;;;8.30;81.65;101758.06;4990960;28;20199;-72
2021/11/12 02:01:45;;;;;;;67.35;38.95;;;8.20;99.90;;;8.28;81.64;101755.50;5005676;28;20191;-71
2021/11/12 02:04:17;;;;;;;61.20;35.25;;;8.20;99.90;;;8.30;81.73;101763.47;5004688;28;20628;-73
2021/11/12 02:06:46;;;;;;;59.97;36.60;;;8.20;99.90;;;8.59;80.76;101754.88;5007528;28;20191;-73
2021/11/12 02:09:20;;;;;;;66.28;37.85;;;8.40;99.90;;;8.43;81.21;101758.41;4991295;28;20555;-72
2021/11/12 02:11:52;;;;;;;65.85;38.05;;;8.30;99.90;;;8.50;80.73;101753.22;4991037;28;20188;-72
2021/11/12 02:14:23;;;;;;;64.22;36.00;;;8.40;99.90;;;8.36;81.29;101767.34;4990523;28;20204;-73
2021/11/12 02:17:03;;;;;;;59.35;34.17;;;8.40;99.90;;;8.52;81.08;101759.28;4988186;28;20229;-74
2021/11/12 02:19:34;;;;;;;62.95;35.50;;;8.40;99.90;;;8.51;80.56;101763.00;4982010;28;20176;-70
2021/11/12 02:22:09;;;;;;;71.20;38.88;;;8.40;99.90;;;8.37;81.32;101763.66;5000003;28;20661;-72
2021/11/12 02:24:42;;;;;;;74.35;37.38;;;8.30;99.90;;;8.27;81.79;101759.22;4982305;28;20187;-70
2021/11/12 02:27:12;;;;;;;71.65;38.17;;;8.30;99.90;;;8.32;82.09;101760.63;4982565;28;20176;-74
2021/11/12 02:29:45;;;;;;;57.97;32.88;;;8.20;99.90;;;8.38;81.84;101759.91;4982675;28;20200;-75
2021/11/12 02:32:18;;;;;;;69.22;37.25;;;8.30;99.90;;;8.33;81.70;101756.91;4982674;28;20180;-74
2021/11/12 02:34:49;;;;;;;68.97;35.20;;;8.20;99.90;;;8.41;81.51;101754.22;4981946;28;20207;-73
2021/11/12 02:37:21;;;;;;;61.40;34.13;;;8.30;99.90;;;8.51;81.37;101744.09;4998250;28;20230;-72
2021/11/12 02:39:51;;;;;;;66.43;37.83;;;8.40;99.90;;;8.41;81.63;101748.81;4985489;28;20175;-72
2021/11/12 02:42:21;;;;;;;68.18;35.67;;;8.30;99.90;;;8.44;81.10;101748.47;4983713;28;20215;-73
2021/11/12 02:44:55;;;;;;;66.85;37.00;;;8.40;99.90;;;8.57;80.78;101751.50;4983059;28;20425;-74
2021/11/12 02:47:24;;;;;;;62.03;35.08;;;8.40;99.90;;;8.52;81.36;101746.63;4981744;28;20207;-74
2021/11/12 02:49:56;;;;;;;70.43;38.80;;;8.40;99.90;;;8.61;80.88;101750.19;4998864;28;20197;-74
2021/11/12 02:52:26;;;;;;;63.13;34.80;;;8.50;99.90;;;8.61;80.60;101744.78;4983446;28;20207;-73
2021/11/12 02:54:55;;;;;;;64.57;35.13;;;8.50;99.90;;;8.60;80.77;101754.72;4983457;28;20228;-74
2021/11/12 02:57:28;;;;;;;61.20;34.70;;;8.50;99.90;;;8.68;80.43;101753.88;4984020;28;20195;-74
2021/11/12 02:59:59;;;;;;;60.30;36.58;;;8.60;99.90;;;8.60;80.64;101749.34;4979579;28;20226;-73
2021/11/12 03:02:27;;;;;;;61.33;33.60;;;8.60;99.90;;;8.72;80.32;101755.22;4996019;28;20219;-73
2021/11/12 03:04:56;;;;;;;63.90;35.20;;;8.60;99.90;;;8.55;80.99;101759.78;4982079;28;20217;-74
2021/11/12 03:07:27;;;;;;;58.28;34.38;;;8.50;99.90;;;8.47;81.53;101761.66;4978082;28;20250;-72
2021/11/12 03:09:55;;;;;;;59.40;33.65;;;8.40;99.90;;;8.50;81.23;101750.50;4994932;28;20211;-73
2021/11/12 03:12:24;;;;;;;62.97;37.13;;;8.40;99.90;;;8.51;81.20;101753.03;4980927;28;20216;-73
2021/11/12 03:14:54;;;;;;;54.42;33.13;;;8.50;99.90;;;8.46;81.14;101746.47;4996804;28;20214;-72
2021/11/12 03:17:23;;;;;;;58.60;34.83;;;8.40;99.90;;;8.44;81.37;101751.16;4979374;28;20188;-73
2021/11/12 03:19:51;;;;;;;62.17;34.60;;;8.40;99.90;;;8.54;81.20;101749.16;4979356;28;20195;-73
2021/11/12 03:22:22;;;;;;;60.38;35.90;;;8.40;99.90;;;8.60;80.87;101748.50;4979829;28;20572;-74
2021/11/12 03:24:57;;;;;;;57.70;32.08;;;8.50;99.90;;;8.66;80.62;101753.22;4982915;28;20191;-73
2021/11/12 03:27:30;;;;;;;53.25;31.88;;;8.50;99.90;;;8.61;80.70;101745.63;4997530;28;20191;-73
2021/11/12 03:30:30;;;;;;;69.15;34.58;;;8.50;99.90;;;8.55;81.09;101746.31;4996393;23;20224;-75
2021/11/12 03:47:10;;;;;;;59.00;33.85;;;8.60;99.90;;;8.62;80.91;101743.75;4923982;29;20188;-74
2021/11/12 03:50:09;;;;;;;56.00;32.22;;;8.60;99.90;;;8.56;81.18;101741.75;4918467;29;20264;-75
2021/11/12 04:03:52;;;;;;;60.75;32.22;;;8.30;99.90;;;8.57;81.27;101732.63;4926544;29;20225;-76
2021/11/12 04:06:31;;;;;;;56.97;34.63;;;8.30;99.90;;;8.62;81.04;101731.09;4940217;29;20197;-76
2021/11/12 04:17:34;;;;;;;63.20;36.55;;;8.60;99.90;;;8.47;81.29;101719.28;4932080;29;20567;-75
2021/11/12 05:10:19;;;;;;;51.95;31.25;;;8.60;99.90;;;8.69;80.66;101726.72;4935144;29;20300;-73
2021/11/12 05:43:32;;;;;;;50.55;29.90;;;8.60;99.90;;;8.64;80.90;101725.53;4917592;29;20215;-75
2021/11/12 05:43:50;;;;;;;56.08;32.35;;;8.50;99.90;;;8.62;81.47;101714.06;4916278;29;20792;-76
2021/11/12 05:46:21;;;;;;;47.08;28.95;;;8.50;99.90;;;8.70;80.92;101711.38;4931137;29;20201;-74
2021/11/12 05:51:55;;;;;;;47.92;31.80;;;8.60;99.90;;;8.81;81.06;101719.09;4915995;29;20177;-75
2021/11/12 05:57:12;;;;;;;53.65;32.65;;;8.80;99.90;;;8.92;80.19;101720.63;4915796;29;20311;-75
2021/11/12 05:59:41;;;;;;;51.30;31.98;;;8.80;99.90;;;8.99;79.72;101719.78;4915756;29;20248;-75
2021/11/12 06:02:10;;;;;;;54.10;33.63;;;8.90;99.90;;;8.86;80.24;101719.44;4915687;29;20201;-74
2021/11/12 06:04:39;;;;;;;58.08;34.38;;;8.80;99.90;;;8.76;80.85;101720.66;4930336;29;20224;-76
2021/11/12 06:07:07;;;;;;;61.40;36.08;;;8.70;99.90;;;8.82;80.54;101718.09;4915915;29;20216;-76
2021/11/12 06:09:37;;;;;;;55.35;31.95;;;8.80;99.90;;;8.72;81.06;101720.97;4915595;29;20194;-76
2021/11/12 06:12:11;;;;;;;58.33;33.35;;;8.70;99.90;;;8.68;81.46;101725.03;4915060;29;20221;-74
2021/11/12 06:14:40;;;;;;;52.83;32.40;;;8.60;99.90;;;8.87;80.50;101723.84;4915295;29;20284;-75
2021/11/12 06:17:08;;;;;;;55.22;32.22;;;8.70;99.90;;;8.77;80.84;101720.47;4929864;29;20230;-75
2021/11/12 06:19:37;;;;;;;55.72;31.65;;;8.70;99.90;;;9.04;80.18;101719.25;4915767;29;20226;-75
2021/11/12 06:22:06;;;;;;;59.50;32.72;;;8.80;99.90;;;9.14;79.64;101726.16;4915460;29;20714;-76
2021/11/12 06:24:35;;;;;;;51.70;31.55;;;8.90;99.90;;;9.03;79.54;101721.13;4917168;29;20189;-74
2021/11/12 06:27:06;;;;;;;53.17;29.50;;;8.90;99.90;;;8.96;80.03;101728.19;4920996;29;20182;-73
2021/11/12 06:29:39;;;;;;;61.30;34.00;;;8.90;99.90;;;9.01;79.88;101733.94;4936692;29;20256;-73
2021/11/12 06:32:08;;;;;;;54.92;29.70;;;8.90;99.90;;;9.02;79.83;101726.69;4935303;29;20222;-74
2021/11/12 06:34:37;;;;;;;60.33;32.05;;;8.90;99.90;;;8.95;80.33;101731.09;4932506;29;20177;-74
2021/11/12 06:37:06;;;;;;;62.83;31.92;;;8.80;99.90;;;8.93;80.54;101728.56;4914659;29;20205;-76
2021/11/12 06:39:35;;;;;;;68.28;32.20;;;8.70;99.90;;;8.74;80.91;101734.31;4917825;29;20201;-75
2021/11/12 06:42:13;;;;;;;73.22;33.83;;;8.70;99.90;;;8.71;81.24;101740.06;4918038;29;20193;-75
2021/11/12 06:50:14;;;;;;;88.10;35.38;;;8.50;99.90;;;8.62;81.67;101735.66;4919409;29;20260;-76
2021/11/12 06:52:45;;;;;;;84.57;34.72;;;8.50;99.90;;;8.76;81.42;101731.47;4918521;29;20595;-76
2021/11/12 06:55:17;;;;;;;86.30;37.00;;;8.60;99.90;;;8.72;81.22;101730.94;4933401;29;20212;-76
2021/11/12 06:57:48;;;;;;;79.72;35.88;;;8.60;99.90;;;8.60;81.35;101726.91;4925391;29;20212;-76
2021/11/12 07:00:21;;;;;;;87.07;40.28;;;8.50;99.90;;;8.50;81.57;101718.13;4945902;29;20185;-75
2021/11/12 07:02:51;;;;;;;91.47;41.33;;;8.40;99.90;;;8.49;81.68;101724.53;4936900;29;20228;-75
2021/11/12 07:05:20;;;;;;;74.82;37.47;;;8.40;99.90;;;8.54;81.34;101722.19;4966495;28;20650;-75
2021/11/12 07:07:48;;;;;;;76.15;36.15;;;8.40;99.90;;;8.42;81.63;101715.44;4935505;29;20189;-75
2021/11/12 07:10:17;;;;;;;90.57;38.47;;;8.30;99.90;;;8.44;81.83;101716.09;4951980;28;20192;-76
2021/11/12 07:12:46;;;;;;;76.35;37.28;;;8.30;99.90;;;8.60;81.32;101718.81;4935576;29;20228;-76
2021/11/12 07:15:18;;;;;;;80.47;36.42;;;8.40;99.90;;;8.55;81.07;101716.63;4952097;29;20208;-75
2021/11/12 07:17:47;;;;;;;78.75;35.40;;;8.40;99.90;;;8.43;81.28;101719.81;4968044;28;20204;-76
2021/11/12 07:20:16;;;;;;;85.63;38.47;;;8.40;99.90;;;8.39;81.28;101723.84;4937148;29;20185;-75
2021/11/12 07:22:44;;;;;;;76.07;35.55;;;8.30;99.90;;;8.42;81.73;101724.38;4937330;29;20220;-75
2021/11/12 07:25:13;;;;;;;80.10;40.03;;;8.30;99.90;;;8.29;82.03;101719.47;4937601;29;20646;-74
2021/11/12 07:27:41;;;;;;;77.95;36.20;;;8.20;99.90;;;8.56;81.71;101725.56;4937431;29;20205;-75
2021/11/12 07:30:20;;;;;;;75.25;37.03;;;8.30;99.90;;;8.52;81.40;101729.63;4937416;29;20196;-76
2021/11/12 07:32:50;;;;;;;74.18;36.17;;;8.30;99.90;;;8.50;81.04;101723.53;4937439;29;20223;-75
2021/11/12 07:35:23;;;;;;;68.45;32.33;;;8.30;99.90;;;8.47;81.25;101727.38;4937326;29;20239;-76
2021/11/12 07:37:58;;;;;;;71.25;33.85;;;8.30;99.90;;;8.44;81.05;101727.75;4937150;29;20207;-76
2021/11/12 07:40:36;;;;;;;61.60;32.40;;;8.30;99.90;;;8.49;80.79;101729.94;4937358;29;20228;-76
2021/11/12 07:43:21;;;;;;;61.58;32.40;;;8.40;99.90;;;8.57;80.14;101724.53;4936914;29;20805;-75
2021/11/12 07:46:06;;;;;;;67.97;34.55;;;8.40;99.90;;;8.46;80.38;101716.78;4937093;29;20599;-75
2021/11/12 07:48:35;;;;;;;55.25;30.48;;;8.40;99.90;;;8.41;80.57;101714.59;4937465;29;20556;-74
2021/11/12 07:51:04;;;;;;;62.70;30.60;;;8.30;99.90;;;8.48;80.62;101721.00;4937390;29;20181;-75
2021/11/12 07:53:32;;;;;;;58.33;30.55;;;8.30;99.90;;;8.68;79.60;101716.09;4936940;29;20216;-75
2021/11/12 07:56:01;;;;;;;63.83;31.75;;;8.60;99.90;;;8.59;79.93;101717.97;4936788;29;20660;-76
2021/11/12 07:58:29;;;;;;;59.77;31.20;;;8.50;99.90;;;8.79;79.29;101715.75;4936667;29;20561;-75
2021/11/12 08:01:01;;;;;;;59.42;30.60;;;8.60;99.90;;;8.89;79.04;101713.72;4936901;29;20403;-77
2021/11/12 08:03:30;;;;;;;54.05;30.38;;;8.70;99.90;;;9.04;78.76;101714.72;4951390;29;20212;-76
2021/11/12 08:06:01;;;;;;;52.05;29.10;;;8.80;99.90;;;8.92;78.71;101716.06;4936850;29;20672;-76
2021/11/12 08:08:33;;;;;;;47.95;27.08;;;8.80;99.90;;;8.88;78.98;101717.44;4936975;29;20173;-75
2021/11/12 08:11:05;;;;;;;52.63;28.08;;;8.70;99.90;;;8.93;78.65;101720.47;4936591;29;20181;-76
2021/11/12 08:13:36;;;;;;;48.17;27.10;;;8.80;99.90;;;8.86;79.01;101716.75;4936369;29;20216;-75
2021/11/12 08:16:20;;;;;;;51.38;28.40;;;8.70;99.90;;;8.75;79.28;101718.97;4936144;29;20483;-75
2021/11/12 08:18:54;;;;;;;54.03;30.27;;;8.70;99.90;;;8.77;78.83;101688.09;4936224;29;20271;-75
2021/11/12 08:21:27;;;;;;;50.05;28.92;;;8.60;99.90;;;8.76;78.94;101682.88;4967102;28;20736;-74
2021/11/12 08:24:09;;;;;;;53.63;30.77;;;8.60;99.90;;;8.83;78.96;101679.31;4936114;29;20574;-73
2021/11/12 08:26:56;;;;;;;56.08;30.67;;;8.60;99.90;;;8.83;79.19;101683.88;4935997;29;20646;-74
2021/11/12 08:35:16;;;;;;;60.17;28.95;;;9.10;99.90;;;9.09;78.50;101688.03;4935950;29;20181;-74
2021/11/12 08:37:54;;;;;;;58.85;30.67;;;8.90;99.90;;;9.16;77.86;101683.59;4935539;29;20791;-74
2021/11/12 08:40:35;;;;;;;52.72;27.90;;;8.90;99.90;;;9.02;78.14;101688.88;4935913;29;20196;-75
2021/11/12 08:43:08;;;;;;;60.75;34.97;;;8.80;99.90;;;8.88;78.53;101685.03;4935443;29;20579;-74
2021/11/12 08:45:38;;;;;;;61.42;34.97;;;8.70;99.90;;;9.00;78.52;101680.13;4935349;29;20279;-74
2021/11/12 08:48:12;;;;;;;67.70;35.70;;;8.70;99.90;;;9.12;78.05;101684.13;4935492;29;20517;-74
2021/11/12 08:50:41;;;;;;;50.30;33.50;;;8.80;99.90;;;9.27;77.66;101684.25;4935563;29;20539;-75
2021/11/12 08:53:11;;;;;;;63.50;36.85;;;9.00;99.90;;;9.26;77.33;101680.69;4935265;29;20892;-74
2021/11/12 08:55:42;;;;;;;51.60;31.37;;;9.00;99.90;;;9.27;76.99;101684.25;4935183;29;20687;-74
2021/11/12 08:58:12;;;;;;;52.60;30.70;;;9.10;99.90;;;9.03;77.55;101680.63;4935155;29;20515;-74
2021/11/12 09:00:43;;;;;;;51.40;30.48;;;8.90;99.90;;;9.43;76.63;101676.09;4935072;29;20184;-74
2021/11/12 09:03:13;;;;;;;59.10;30.48;;;9.10;99.90;;;9.39;76.50;101663.94;4935375;29;20216;-74
2021/11/12 09:05:41;;;;;;;46.95;29.67;;;9.20;99.90;;;9.24;77.12;101676.50;4935105;29;20201;-74
2021/11/12 09:08:10;;;;;;;43.03;28.15;;;9.10;99.90;;;9.42;76.30;101666.28;4933796;29;20204;-75
2021/11/12 09:10:38;;;;;;;41.80;27.15;;;9.10;99.90;;;9.24;76.71;101660.31;4935285;29;20192;-75
2021/11/12 09:13:13;;;;;;;47.50;26.75;;;9.00;99.90;;;9.50;76.46;101660.84;4935157;29;20689;-73
2021/11/12 09:15:47;;;;;;;54.57;30.37;;;9.20;99.90;;;9.40;76.88;101657.50;4935416;29;20177;-74
2021/11/12 09:18:19;;;;;;;56.33;32.20;;;9.20;99.90;;;9.39;77.28;101655.84;4935014;29;20559;-75
2021/11/12 09:20:47;;;;;;;47.23;28.20;;;9.10;99.90;;;9.55;76.63;101653.03;4935574;29;20439;-74
2021/11/12 09:23:16;;;;;;;54.90;30.00;;;9.30;99.90;;;9.64;76.76;101648.44;4937255;29;20445;-74
2021/11/12 09:25:45;;;;;;;51.73;29.93;;;9.30;99.90;;;9.69;76.46;101655.00;4969683;28;20437;-75
2021/11/12 09:28:14;;;;;;;59.30;33.17;;;9.40;99.90;;;9.96;75.81;101653.66;4936800;29;20409;-74
2021/11/12 09:30:50;;;;;;;50.20;30.33;;;9.50;99.90;;;9.92;75.83;101655.03;4961300;23;20555;-73
2021/11/12 09:38:23;;;;;;;47.40;27.97;;;9.80;99.90;;;10.24;74.32;101641.28;4923681;29;20473;-74
2021/11/12 09:40:51;;;;;;;42.23;25.07;;;9.90;99.90;;;10.37;73.65;101630.69;4914215;29;20545;-72
2021/11/12 09:43:20;;;;;;;41.23;24.83;;;10.00;99.90;;;10.30;74.40;101634.31;4913900;29;20889;-72
2021/11/12 09:45:49;;;;;;;43.23;26.17;;;10.00;99.90;;;10.56;73.50;101632.03;4914109;29;20426;-73
2021/11/12 09:48:19;;;;;;;31.50;21.47;;;10.20;99.90;;;10.50;73.11;101631.94;4914245;29;20518;-74
2021/11/12 09:50:48;;;;;;;33.23;23.33;;;10.20;99.90;;;10.51;72.99;101633.59;4914582;29;20437;-75
2021/11/12 09:53:17;;;;;;;39.43;23.80;;;10.20;99.90;;;10.45;73.34;101630.63;4903312;29;20496;-73
2021/11/12 09:55:47;;;;;;;36.90;23.40;;;10.20;99.90;;;10.46;73.71;101632.28;4924916;29;20442;-73
2021/11/12 09:58:17;;;;;;;34.90;22.03;;;10.20;99.90;;;10.44;72.53;101622.69;4923657;29;20513;-73
2021/11/12 10:00:53;;;;;;;30.90;21.97;;;10.10;99.90;;;10.73;72.37;101621.88;4923157;29;20461;-75
2021/11/12 10:03:22;;;;;;;28.53;20.23;;;10.30;99.90;;;10.62;72.01;101622.34;4915237;29;20505;-73
2021/11/12 10:05:52;;;;;;;37.37;21.47;;;10.30;99.90;;;10.61;72.02;101617.94;4914676;29;20437;-73
2021/11/12 10:08:26;;;;;;;35.33;21.63;;;10.40;99.90;;;10.40;72.42;101619.50;4916905;29;20441;-74
2021/11/12 10:11:01;;;;;;;31.80;20.37;;;10.20;99.90;;;10.50;71.97;101611.13;4914598;29;20464;-73
2021/11/12 10:13:33;;;;;;;28.23;18.03;;;10.30;99.90;;;10.45;72.49;101610.84;4917395;29;20530;-74
2021/11/12 10:16:23;;;;;;;32.73;21.10;;;10.30;99.90;;;10.37;72.98;101611.75;4919558;29;20426;-72
2021/11/12 10:19:08;;;;;;;29.03;18.50;;;10.20;99.90;;;10.43;72.57;101599.34;4919732;29;20469;-73
2021/11/12 10:21:40;;;;;;;31.93;19.63;;;10.20;99.90;;;10.45;72.48;101598.16;4918893;29;20438;-72
2021/11/12 10:24:18;;;;;;;28.23;17.63;;;10.20;99.90;;;10.33;72.58;101596.06;4934823;29;20506;-73
2021/11/12 10:26:52;;;;;;;25.97;19.60;;;10.10;99.90;;;10.26;72.94;101584.31;4920418;29;20493;-73
2021/11/12 10:29:25;;;;;;;24.20;16.20;;;10.10;99.90;;;10.47;72.16;101581.72;4920408;29;20511;-73
2021/11/12 10:31:59;;;;;;;22.83;16.90;;;10.20;99.90;;;10.33;72.17;101577.97;4919050;29;20428;-74
2021/11/12 10:34:31;;;;;;;20.23;16.17;;;10.30;99.90;;;10.26;72.54;101577.00;4919931;29;20465;-74
2021/11/12 10:37:05;;;;;;;21.97;16.33;;;10.20;99.90;;;10.44;72.17;101572.13;4919820;29;20773;-75
2021/11/12 10:39:40;;;;;;;21.70;17.97;;;10.20;99.90;;;10.47;72.09;101570.88;4918565;29;20472;-73
2021/11/12 10:42:14;;;;;;;26.60;17.80;;;10.20;99.90;;;10.42;72.59;101562.47;4918215;29;20467;-74
2021/11/12 10:44:49;;;;;;;22.13;18.40;;;10.20;99.90;;;10.62;71.78;101552.78;4919168;29;20458;-74
2021/11/12 10:47:21;;;;;;;23.73;18.43;;;10.30;99.90;;;10.24;72.06;101556.59;4919853;29;20404;-73
2021/11/12 10:49:53;;;;;;;23.40;16.63;;;10.20;99.90;;;10.18;72.26;101558.16;4934086;29;20428;-73
2021/11/12 10:52:25;;;;;;;34.07;18.10;;;10.10;99.90;;;9.93;73.09;101559.34;4933883;29;20820;-73
2021/11/12 10:54:58;;;;;;;25.03;18.30;;;9.90;99.90;;;9.78;73.64;101558.50;4919915;29;20433;-74
2021/11/12 10:57:33;;;;;;;23.03;17.80;;;9.70;99.90;;;9.83;74.00;101558.75;4917713;29;20441;-74
2021/11/12 11:00:12;;;;;;;28.10;19.33;;;9.60;99.90;;;10.04;73.21;101557.06;4918834;29;20469;-73
2021/11/12 11:02:45;;;;;;;25.73;19.63;;;9.80;99.90;;;9.95;73.55;101552.75;4917951;29;20473;-72
2021/11/12 11:05:19;;;;;;;27.98;20.10;;;9.80;99.90;;;9.90;73.13;101548.91;4919072;29;20421;-73
2021/11/12 11:07:53;;;;;;;28.97;19.37;;;9.90;99.90;;;9.89;74.08;101544.53;4934356;29;20221;-73
2021/11/12 11:10:32;;;;;;;27.50;20.77;;;9.70;99.90;;;10.06;73.31;101542.53;4933152;29;20485;-73
2021/11/12 11:13:08;;;;;;;26.00;19.10;;;9.70;99.90;;;10.03;73.14;101528.34;4918202;29;20857;-73
2021/11/12 11:15:39;;;;;;;28.23;20.00;;;9.90;99.90;;;10.21;73.04;101529.91;4929066;29;20420;-73
2021/11/12 11:18:19;;;;;;;26.30;18.90;;;9.90;99.90;;;10.16;71.99;101526.94;4936175;29;20511;-74
2021/11/12 11:20:58;;;;;;;22.10;16.17;;;9.90;99.90;;;10.14;71.86;101528.94;4936565;29;21024;-74
2021/11/12 11:23:30;;;;;;;24.33;16.87;;;9.90;99.90;;;10.19;71.99;101524.69;4937160;29;20569;-74
2021/11/12 11:26:03;;;;;;;23.70;17.20;;;10.00;99.90;;;10.21;72.05;101529.91;4937782;29;20395;-73
2021/11/12 11:28:37;;;;;;;21.47;17.23;;;10.00;99.90;;;10.39;71.41;101533.09;4944007;29;20784;-73
2021/11/12 11:31:09;;;;;;;18.10;15.70;;;10.10;99.90;;;10.40;71.46;101521.25;4916287;29;20459;-76
2021/11/12 11:33:41;;;;;;;23.90;17.97;;;10.00;99.90;;;10.33;71.01;101523.84;4941084;28;20437;-73
2021/11/12 11:36:12;;;;;;;23.23;18.10;;;10.10;99.90;;;10.23;71.60;101519.72;4937671;29;20449;-73
2021/11/12 11:38:42;;;;;;;28.63;18.67;;;10.00;99.90;;;10.18;72.26;101508.63;4934249;29;20464;-72
2021/11/12 11:41:14;;;;;;;24.30;18.20;;;10.00;99.90;;;10.34;71.86;101513.88;4945892;28;20445;-74
2021/11/12 11:43:46;;;;;;;22.10;18.50;;;10.00;99.90;;;10.49;71.01;101503.91;4922938;29;20467;-73
2021/11/12 11:46:21;;;;;;;21.63;17.37;;;10.10;99.90;;;10.43;71.04;101494.66;4930235;29;20439;-72
2021/11/12 11:48:52;;;;;;;27.10;19.43;;;10.10;99.90;;;10.54;70.69;101495.22;4943723;28;20459;-73
2021/11/12 11:51:30;;;;;;;20.37;16.60;;;10.20;99.90;;;10.43;70.44;101491.13;4933699;29;21004;-74
2021/11/12 11:54:05;;;;;;;23.80;18.43;;;10.20;99.90;;;10.49;71.14;101490.38;4934964;29;20585;-73
2021/11/12 11:56:35;;;;;;;20.50;18.27;;;10.20;99.90;;;10.67;70.40;101492.69;4927526;29;20400;-73
2021/11/12 11:59:11;;;;;;;22.23;15.53;;;10.30;99.90;;;10.74;69.63;101483.66;4935618;28;20466;-75
2021/11/12 12:01:46;;;;;;;21.33;16.10;;;10.30;99.90;;;10.41;70.24;101482.34;4928163;29;20537;-73
2021/11/12 12:04:32;;;;;;;21.37;15.97;;;10.20;99.90;;;10.56;70.59;101479.63;4925129;28;20467;-73
2021/11/12 12:07:31;;;;;;;19.07;15.17;;;10.20;99.90;;;10.53;69.60;101474.59;4941829;29;20487;-73
2021/11/12 12:10:23;;;;;;;15.20;12.33;;;10.30;99.90;;;10.61;70.26;101467.22;4860054;28;133492;-73
2021/11/12 12:13:02;;;;;;;19.70;15.67;;;10.30;99.90;;;10.72;69.69;101453.19;4941942;29;20480;-73
2021/11/12 12:15:44;;;;;;;20.43;14.77;;;10.40;99.90;;;10.75;69.31;101449.25;4923563;29;20492;-73
2021/11/12 12:18:26;;;;;;;21.60;15.20;;;10.40;99.90;;;10.76;69.12;101443.66;4931943;28;20437;-73
2021/11/12 12:33:57;;;;;;;19.73;15.67;;;10.60;99.90;;;10.77;69.06;101439.94;4931088;29;20586;-73
2021/11/12 13:20:28;;;;;;;19.53;14.70;;;10.00;1.00;;;10.21;70.55;101383.88;4931260;29;20466;-72
2021/11/12 13:23:09;;;;;;;17.57;14.10;;;10.00;1.00;;;10.04;70.20;101384.00;4916090;29;20822;-76
2021/11/12 13:25:40;;;;;;;15.93;13.23;;;9.90;1.00;;;10.03;70.16;101387.72;4931185;29;20435;-71
2021/11/12 13:28:21;;;;;;;16.43;13.13;;;9.90;1.00;;;9.91;70.44;101383.00;4935600;29;20520;-76
2021/11/12 13:30:54;;;;;;;12.37;9.43;;;9.80;1.00;;;9.93;70.22;101375.50;4944871;28;20454;-74
2021/11/12 13:33:48;;;;;;;17.10;11.67;;;9.70;1.00;;;9.96;70.71;101375.16;4946690;29;20453;-74
2021/11/12 13:36:30;;;;;;;11.67;10.57;;;9.70;1.00;;;9.82;70.06;101378.69;4924815;29;20440;-72
2021/11/12 13:39:29;;;;;;;18.38;11.63;;;9.80;1.00;;;9.71;70.65;101377.28;4943773;29;20465;-72
2021/11/12 13:42:20;;;;;;;10.77;9.57;;;9.60;1.00;;;9.60;70.70;101375.88;4916140;29;20233;-75
2021/11/12 13:44:55;;;;;;;11.55;9.30;;;9.50;1.00;;;9.57;70.98;101361.91;4931037;29;20505;-71
2021/11/12 13:47:46;;;;;;;14.07;10.57;;;9.40;1.00;;;9.57;70.77;101361.91;4917595;29;20205;-72
2021/11/12 13:50:34;;;;;;;12.65;9.73;;;9.40;1.00;;;9.67;70.77;101365.19;4921507;29;20422;-71
2021/11/12 13:53:21;;;;;;;12.47;9.27;;;9.40;1.00;;;9.67;70.91;101362.47;4934126;28;20733;-72
2021/11/12 13:56:04;;;;;;;14.18;11.95;;;9.50;1.00;;;9.64;71.03;101357.41;4919320;29;20421;-72
2021/11/12 13:58:36;;;;;;;15.65;11.82;;;9.50;1.00;;;9.52;71.17;101356.22;4933708;29;20201;-72
2021/11/12 14:01:26;;;;;;;16.03;12.57;;;9.40;1.00;;;9.47;71.45;101370.28;4933853;29;20212;-74
2021/11/12 14:04:29;;;;;;;14.25;11.35;;;9.40;1.00;;;9.57;71.33;101359.19;4922026;29;20452;-72
2021/11/12 14:07:20;;;;;;;14.63;10.57;;;9.40;79.20;;;9.40;71.06;101358.50;4933935;28;20233;-73
2021/11/12 14:13:09;;;;;;;9.98;8.30;;;9.20;1.00;;;9.29;71.29;101358.13;4915980;29;20240;-73